Time;durP1;ratioP1;P1;durP2;ratioP2;P2;SDS_P1;SDS_P2;PMS_P1;PMS_P2;Temp;Humidity;BMP_temperature;BMP_pressure;BME280_temperature;BME280_humidity;BME280_pressure;Samples;Min_cycle;Max_cycle;Signal;HPM_P1;HPM_P2
2021/01/01 00:00:09;;;;;;;306.05;156.10;;;1.20;99.90;;;;;;5093734;28;20020;-69
2021/01/01 00:02:35;;;;;;;427.55;245.40;;;1.20;99.90;;;;;;5082480;28;20120;-69
2021/01/01 00:05:02;;;;;;;396.60;226.63;;;1.20;99.90;;;;;;5089203;28;20020;-68
2021/01/01 00:07:28;;;;;;;294.35;143.65;;;1.20;99.90;;;;;;5073669;28;20056;-67
2021/01/01 00:09:53;;;;;;;312.00;159.00;;;1.20;99.90;;;;;;5079080;28;20117;-67
2021/01/01 00:12:19;;;;;;;271.17;133.57;;;1.30;99.90;;;;;;5083701;28;20024;-68
2021/01/01 00:14:44;;;;;;;300.63;148.63;;;1.30;99.90;;;;;;5078562;28;20493;-67
2021/01/01 00:17:10;;;;;;;259.17;130.82;;;1.30;99.90;;;;;;5085672;28;20187;-68
2021/01/01 00:19:35;;;;;;;249.52;125.93;;;1.20;99.90;;;;;;5077425;28;20031;-67
2021/01/01 00:22:01;;;;;;;256.38;129.52;;;1.30;99.90;;;;;;5093968;28;20360;-68
2021/01/01 00:24:26;;;;;;;265.77;128.60;;;1.20;99.90;;;;;;5075621;28;20024;-67
2021/01/01 00:26:52;;;;;;;211.50;108.95;;;1.20;99.90;;;;;;5072409;28;20028;-68
2021/01/01 00:29:18;;;;;;;197.23;100.82;;;1.20;99.90;;;;;;5073360;28;20051;-67
2021/01/01 00:31:43;;;;;;;181.90;93.05;;;1.10;99.90;;;;;;5092713;28;20427;-67
2021/01/01 00:34:09;;;;;;;170.40;85.40;;;1.10;99.90;;;;;;5093471;28;20032;-68
2021/01/01 00:36:34;;;;;;;170.25;85.72;;;1.10;99.90;;;;;;5093076;28;20020;-68
2021/01/01 00:39:00;;;;;;;189.80;88.55;;;1.10;99.90;;;;;;5092859;28;20298;-68
2021/01/01 00:41:30;;;;;;;181.10;86.28;;;1.10;99.90;;;;;;5093123;28;20028;-68
2021/01/01 00:43:57;;;;;;;201.45;91.63;;;1.00;99.90;;;;;;5093217;28;20108;-69
2021/01/01 00:46:23;;;;;;;206.50;99.40;;;1.00;99.90;;;;;;5092258;28;20040;-68
2021/01/01 00:48:49;;;;;;;190.50;93.55;;;1.00;99.90;;;;;;5093460;28;20028;-68
2021/01/01 00:51:23;;;;;;;202.38;91.35;;;1.10;99.90;;;;;;5092926;28;20047;-68
2021/01/01 00:53:48;;;;;;;186.32;94.00;;;1.00;99.90;;;;;;5092364;28;20047;-68
2021/01/01 00:56:21;;;;;;;201.45;94.10;;;1.00;99.90;;;;;;5092761;28;20024;-68
2021/01/01 00:58:49;;;;;;;209.27;96.97;;;1.00;99.90;;;;;;5093023;28;20036;-68
2021/01/01 01:01:18;;;;;;;195.50;92.80;;;1.10;99.90;;;;;;5091822;28;20023;-68
2021/01/01 01:03:44;;;;;;;206.40;96.03;;;1.10;99.90;;;;;;5092776;28;20028;-68
2021/01/01 01:06:10;;;;;;;206.60;96.13;;;1.10;99.90;;;;;;5092724;28;20084;-69
2021/01/01 01:08:36;;;;;;;198.32;97.10;;;1.10;99.90;;;;;;5091674;28;20063;-68
2021/01/01 01:11:02;;;;;;;236.45;112.13;;;1.00;99.90;;;;;;5092562;28;20024;-68
2021/01/01 01:13:27;;;;;;;262.13;120.00;;;1.10;99.90;;;;;;5092335;28;20062;-68
2021/01/01 01:15:53;;;;;;;315.60;143.77;;;1.10;99.90;;;;;;5091777;28;20048;-69
2021/01/01 01:18:19;;;;;;;321.30;152.68;;;1.00;99.90;;;;;;5083686;28;20473;-68
2021/01/01 01:20:44;;;;;;;352.73;167.10;;;1.00;99.90;;;;;;5086584;28;20020;-69
2021/01/01 01:23:10;;;;;;;377.33;176.13;;;1.00;99.90;;;;;;5090323;28;20153;-68
2021/01/01 01:25:35;;;;;;;381.20;173.98;;;1.00;99.90;;;;;;5091824;28;20024;-69
2021/01/01 01:28:01;;;;;;;406.60;189.98;;;1.10;99.90;;;;;;5091493;28;20048;-69
2021/01/01 01:30:26;;;;;;;429.67;205.55;;;1.00;99.90;;;;;;5089736;28;20020;-69
2021/01/01 01:32:52;;;;;;;438.05;204.43;;;1.10;99.90;;;;;;5080402;28;20468;-68
2021/01/01 01:35:17;;;;;;;430.95;205.07;;;1.20;99.90;;;;;;5090528;28;20020;-67
2021/01/01 01:37:43;;;;;;;414.92;200.05;;;1.20;99.90;;;;;;5092378;28;20070;-67
2021/01/01 01:40:09;;;;;;;456.67;213.63;;;1.30;99.90;;;;;;5079709;28;20017;-67
2021/01/01 01:42:34;;;;;;;433.45;206.20;;;1.20;99.90;;;;;;5088597;28;20119;-68
2021/01/01 01:45:00;;;;;;;422.27;201.38;;;1.20;99.90;;;;;;5091536;28;20076;-68
2021/01/01 01:47:26;;;;;;;406.08;194.52;;;1.20;99.90;;;;;;5091935;28;20051;-68
2021/01/01 01:49:52;;;;;;;407.98;194.27;;;1.20;99.90;;;;;;5090944;28;20472;-68
2021/01/01 01:52:19;;;;;;;395.00;181.40;;;1.20;99.90;;;;;;5092167;28;20059;-67
2021/01/01 01:54:47;;;;;;;392.42;174.98;;;1.20;99.90;;;;;;5091732;28;20377;-69
2021/01/01 01:57:13;;;;;;;383.20;174.23;;;1.20;99.90;;;;;;5078701;28;20020;-68
2021/01/01 01:59:40;;;;;;;364.63;169.35;;;1.20;99.90;;;;;;5089500;28;20016;-68
2021/01/01 02:02:06;;;;;;;353.52;158.05;;;1.30;99.90;;;;;;5091856;28;20024;-68
2021/01/01 02:04:31;;;;;;;344.33;156.70;;;1.40;99.90;;;;;;5090506;28;20475;-68
2021/01/01 02:06:57;;;;;;;330.25;148.80;;;1.30;99.90;;;;;;5091586;28;20490;-68
2021/01/01 02:09:23;;;;;;;332.50;145.43;;;1.40;99.90;;;;;;5091133;28;20530;-68
2021/01/01 02:11:49;;;;;;;318.33;144.43;;;1.40;99.90;;;;;;5090750;28;20043;-68
2021/01/01 02:14:16;;;;;;;315.55;137.48;;;1.40;99.90;;;;;;5091232;28;20078;-68
2021/01/01 02:16:43;;;;;;;312.92;137.52;;;1.40;99.90;;;;;;5090837;28;20133;-68
2021/01/01 02:19:12;;;;;;;287.75;133.00;;;1.40;99.90;;;;;;5090638;28;20040;-68
2021/01/01 02:21:41;;;;;;;290.85;132.25;;;1.40;99.90;;;;;;5091198;28;20399;-68
2021/01/01 02:24:09;;;;;;;289.52;126.85;;;1.40;99.90;;;;;;5090502;28;20403;-68
2021/01/01 02:26:35;;;;;;;265.35;122.90;;;1.30;99.90;;;;;;5090928;28;20052;-68
2021/01/01 02:29:00;;;;;;;266.85;115.30;;;1.40;99.90;;;;;;5091354;28;20051;-68
2021/01/01 02:31:26;;;;;;;261.20;115.68;;;1.40;99.90;;;;;;5077186;28;20029;-68
2021/01/01 02:33:51;;;;;;;230.50;108.05;;;1.40;99.90;;;;;;5089626;28;20039;-68
2021/01/01 02:36:17;;;;;;;246.65;109.15;;;1.30;99.90;;;;;;5090855;28;20020;-68
2021/01/01 02:38:42;;;;;;;239.98;107.68;;;1.30;99.90;;;;;;5090034;28;20372;-68
2021/01/01 02:41:08;;;;;;;229.40;107.50;;;1.30;99.90;;;;;;5091043;28;20024;-68
2021/01/01 02:43:33;;;;;;;231.88;103.93;;;1.30;99.90;;;;;;5090884;28;20418;-69
2021/01/01 02:45:59;;;;;;;229.68;104.45;;;1.30;99.90;;;;;;5090312;28;20032;-68
2021/01/01 02:48:25;;;;;;;248.57;109.10;;;1.40;99.90;;;;;;5089875;28;20483;-68
2021/01/01 02:50:51;;;;;;;226.65;101.93;;;1.40;99.90;;;;;;5090659;28;20380;-68
2021/01/01 02:53:17;;;;;;;219.85;102.60;;;1.40;99.90;;;;;;5089818;28;20130;-69
2021/01/01 02:55:42;;;;;;;225.43;102.22;;;1.40;99.90;;;;;;5090897;28;20048;-68
2021/01/01 02:58:08;;;;;;;218.57;98.85;;;1.40;99.90;;;;;;5090813;28;20028;-68
2021/01/01 03:00:36;;;;;;;205.65;93.63;;;1.30;99.90;;;;;;5090023;28;20020;-68
2021/01/01 03:03:02;;;;;;;215.05;97.57;;;1.30;99.90;;;;;;5090667;28;20124;-68
2021/01/01 03:05:27;;;;;;;215.50;98.70;;;1.20;99.90;;;;;;5090496;28;20431;-68
2021/01/01 03:07:53;;;;;;;237.02;107.18;;;1.20;99.90;;;;;;5089730;28;20027;-68
2021/01/01 03:10:19;;;;;;;229.52;100.43;;;1.20;99.90;;;;;;5090707;28;20020;-68
2021/01/01 03:12:45;;;;;;;214.32;93.70;;;1.30;99.90;;;;;;5090878;28;20086;-68
2021/01/01 03:15:11;;;;;;;195.43;84.88;;;1.30;99.90;;;;;;5090054;28;20056;-68
2021/01/01 03:17:36;;;;;;;198.75;83.85;;;1.40;99.90;;;;;;5090655;28;20369;-68
2021/01/01 03:20:04;;;;;;;180.38;75.50;;;1.50;99.90;;;;;;5090778;28;20023;-69
2021/01/01 03:22:30;;;;;;;151.18;70.35;;;1.50;99.90;;;;;;5089483;28;20028;-68
2021/01/01 03:24:55;;;;;;;142.80;65.47;;;1.50;99.90;;;;;;5090671;28;20313;-68
2021/01/01 03:27:21;;;;;;;148.18;66.85;;;1.60;99.90;;;;;;5090117;28;20032;-68
2021/01/01 03:29:46;;;;;;;140.63;63.63;;;1.60;99.90;;;;;;5089959;28;20020;-67
2021/01/01 03:32:12;;;;;;;135.35;62.53;;;1.70;99.90;;;;;;5084310;28;20477;-69
2021/01/01 03:34:37;;;;;;;126.97;58.33;;;1.70;99.90;;;;;;5069572;28;20041;-69
2021/01/01 03:37:03;;;;;;;133.63;61.25;;;1.70;99.90;;;;;;5069822;28;20032;-69
2021/01/01 03:39:28;;;;;;;116.75;56.30;;;1.80;99.90;;;;;;5069969;28;20048;-69
2021/01/01 03:41:54;;;;;;;116.15;53.97;;;1.80;99.90;;;;;;5069215;28;20107;-70
2021/01/01 03:44:19;;;;;;;107.75;53.97;;;1.90;99.90;;;;;;5069736;28;20063;-67
2021/01/01 03:46:45;;;;;;;113.65;49.42;;;1.90;99.90;;;;;;5070077;28;20035;-68
2021/01/01 03:49:10;;;;;;;104.90;49.75;;;1.90;99.90;;;;;;5069241;28;20024;-67
2021/01/01 03:51:36;;;;;;;106.40;47.63;;;1.90;99.90;;;;;;5069712;28;20027;-67
2021/01/01 03:54:02;;;;;;;99.03;44.72;;;1.90;99.90;;;;;;5069851;28;20037;-70
2021/01/01 03:56:27;;;;;;;97.32;43.60;;;1.90;99.90;;;;;;5069104;28;20025;-68
2021/01/01 03:58:52;;;;;;;92.30;43.85;;;1.80;99.90;;;;;;5071092;28;20025;-68
2021/01/01 04:01:18;;;;;;;93.65;41.95;;;1.80;99.90;;;;;;5073239;28;20048;-68
2021/01/01 04:03:44;;;;;;;88.32;41.08;;;1.80;99.90;;;;;;5073068;28;20039;-68
2021/01/01 04:06:09;;;;;;;79.63;37.17;;;1.80;99.90;;;;;;5073353;28;20047;-68
2021/01/01 04:08:35;;;;;;;79.82;36.40;;;1.80;99.90;;;;;;5073189;28;20513;-68
2021/01/01 04:11:01;;;;;;;71.93;36.60;;;1.90;99.90;;;;;;5072655;28;20035;-68
2021/01/01 04:13:27;;;;;;;83.43;37.90;;;1.90;99.90;;;;;;5073157;28;20123;-68
2021/01/01 04:15:52;;;;;;;74.25;36.45;;;1.90;99.90;;;;;;5073282;28;20119;-68
2021/01/01 04:18:18;;;;;;;85.22;37.75;;;2.00;99.90;;;;;;5072262;28;20381;-67
2021/01/01 04:20:43;;;;;;;82.93;37.80;;;2.00;99.90;;;;;;5073224;28;20052;-67
2021/01/01 04:23:09;;;;;;;76.82;34.13;;;2.10;99.90;;;;;;5073161;28;20107;-67
2021/01/01 04:25:35;;;;;;;72.45;33.70;;;2.10;99.90;;;;;;5072025;28;20070;-67
2021/01/01 04:28:00;;;;;;;68.43;31.33;;;2.10;99.90;;;;;;5073343;28;20028;-68
2021/01/01 04:30:26;;;;;;;62.35;31.25;;;2.10;99.90;;;;;;5072542;28;20048;-68
2021/01/01 04:32:52;;;;;;;66.00;29.73;;;2.10;99.90;;;;;;5083056;28;20035;-68
2021/01/01 04:35:17;;;;;;;56.38;28.02;;;2.10;99.90;;;;;;5092864;28;20024;-68
2021/01/01 04:37:43;;;;;;;52.50;25.73;;;2.10;99.90;;;;;;5092721;28;20122;-68
2021/01/01 04:40:09;;;;;;;50.22;24.67;;;2.10;99.90;;;;;;5093405;28;20113;-68
2021/01/01 04:42:35;;;;;;;42.97;22.55;;;2.10;99.90;;;;;;5093056;28;20396;-67
2021/01/01 04:45:03;;;;;;;51.70;22.70;;;2.00;99.90;;;;;;5092325;28;20016;-68
2021/01/01 04:47:31;;;;;;;47.63;21.33;;;2.00;99.90;;;;;;5092686;28;20020;-67
2021/01/01 04:50:00;;;;;;;43.00;20.95;;;2.00;99.90;;;;;;5093030;28;20376;-67
2021/01/01 04:52:30;;;;;;;39.63;20.65;;;2.10;99.90;;;;;;5092004;28;20500;-67
2021/01/01 04:54:57;;;;;;;42.63;19.83;;;2.00;99.90;;;;;;5093141;28;20028;-67
2021/01/01 04:57:23;;;;;;;44.58;20.35;;;2.00;99.90;;;;;;5092506;28;20028;-68
2021/01/01 04:59:48;;;;;;;36.00;18.55;;;2.00;99.90;;;;;;5092132;28;20076;-67
2021/01/01 05:02:14;;;;;;;38.03;18.92;;;2.00;99.90;;;;;;5092522;28;20081;-67
2021/01/01 05:04:39;;;;;;;37.25;18.38;;;2.00;99.90;;;;;;5093390;28;20063;-67
2021/01/01 05:07:05;;;;;;;39.85;17.75;;;2.00;99.90;;;;;;5092276;28;20107;-67
2021/01/01 05:09:32;;;;;;;38.55;17.90;;;2.00;99.90;;;;;;5092254;28;20024;-68
2021/01/01 05:12:08;;;;;;;32.42;17.20;;;2.00;99.90;;;;;;5091880;28;20547;-67
2021/01/01 05:14:33;;;;;;;33.88;17.35;;;2.10;99.90;;;;;;5090979;28;20460;-68
2021/01/01 05:16:59;;;;;;;41.47;18.15;;;2.10;99.90;;;;;;5093071;28;20016;-67
2021/01/01 05:19:43;;;;;;;32.15;16.88;;;2.00;99.90;;;;;;5091741;28;20028;-67
2021/01/01 05:22:11;;;;;;;32.65;17.30;;;2.00;99.90;;;;;;5092122;28;20058;-67
2021/01/01 05:24:38;;;;;;;31.15;15.77;;;2.00;99.90;;;;;;5092063;28;20497;-67
2021/01/01 05:27:15;;;;;;;36.83;16.08;;;2.10;99.90;;;;;;5091683;28;20032;-67
2021/01/01 05:29:55;;;;;;;34.42;15.60;;;2.10;99.90;;;;;;5092090;28;20052;-68
2021/01/01 05:32:25;;;;;;;30.08;15.25;;;2.10;99.90;;;;;;5078029;28;20049;-67
2021/01/01 05:34:51;;;;;;;33.13;16.90;;;2.10;99.90;;;;;;5091605;28;20032;-69
2021/01/01 05:37:28;;;;;;;31.17;15.23;;;2.10;99.90;;;;;;5091738;28;20424;-67
2021/01/01 05:40:10;;;;;;;28.35;14.57;;;2.10;99.90;;;;;;5092206;28;20032;-67
2021/01/01 05:42:39;;;;;;;29.08;14.60;;;2.10;99.90;;;;;;5077567;28;20016;-67
2021/01/01 05:45:19;;;;;;;24.70;13.07;;;2.10;99.90;;;;;;5092046;28;20510;-67
2021/01/01 05:48:07;;;;;;;25.80;14.18;;;2.20;99.90;;;;;;5079022;28;20028;-67
2021/01/01 05:50:34;;;;;;;26.50;13.60;;;2.10;99.90;;;;;;5091470;28;20032;-68
2021/01/01 05:53:13;;;;;;;31.65;14.18;;;2.20;99.90;;;;;;5092177;28;20130;-67
2021/01/01 05:55:39;;;;;;;24.77;12.90;;;2.20;99.90;;;;;;5091106;28;20042;-67
2021/01/01 05:58:17;;;;;;;25.00;12.38;;;2.20;99.90;;;;;;5092116;28;20448;-67
2021/01/01 06:00:44;;;;;;;21.67;12.77;;;2.20;99.90;;;;;;5091356;28;20020;-69
2021/01/01 06:03:11;;;;;;;20.02;11.32;;;2.20;99.90;;;;;;5091350;28;20373;-67
2021/01/01 06:05:38;;;;;;;20.30;10.85;;;2.30;99.90;;;;;;5091035;28;20436;-67
2021/01/01 06:08:06;;;;;;;23.67;11.82;;;2.30;99.90;;;;;;5091783;28;20028;-67
2021/01/01 06:10:35;;;;;;;22.17;10.77;;;2.30;99.90;;;;;;5090545;28;20024;-67
2021/01/01 06:13:04;;;;;;;18.80;10.93;;;2.30;99.90;;;;;;5091733;28;20082;-66
2021/01/01 06:15:34;;;;;;;17.58;9.60;;;2.30;99.90;;;;;;5091076;28;20135;-66
2021/01/01 06:18:05;;;;;;;15.70;9.10;;;2.30;99.90;;;;;;5090800;28;20024;-68
2021/01/01 06:20:32;;;;;;;17.83;10.18;;;2.30;99.90;;;;;;5091365;28;20115;-66
2021/01/01 06:23:00;;;;;;;22.30;10.98;;;2.30;99.90;;;;;;5091326;28;20028;-67
2021/01/01 06:25:30;;;;;;;22.15;11.00;;;2.30;99.90;;;;;;5090698;28;20051;-67
2021/01/01 06:27:56;;;;;;;23.10;13.52;;;2.30;99.90;;;;;;5091073;28;20054;-67
2021/01/01 06:30:25;;;;;;;27.35;11.82;;;2.30;99.90;;;;;;5089273;28;20519;-67
2021/01/01 06:32:52;;;;;;;23.13;11.57;;;2.30;99.90;;;;;;5080936;28;20039;-67
2021/01/01 06:35:20;;;;;;;22.80;12.45;;;2.30;99.90;;;;;;5070461;28;20635;-66
2021/01/01 06:37:48;;;;;;;21.13;9.43;;;2.30;99.90;;;;;;5070474;28;20048;-67
2021/01/01 06:40:22;;;;;;;20.88;9.50;;;2.30;99.90;;;;;;5070526;28;20442;-67
2021/01/01 06:42:52;;;;;;;21.98;11.15;;;2.30;99.90;;;;;;5070902;28;20020;-67
2021/01/01 06:45:29;;;;;;;23.77;10.63;;;2.30;99.90;;;;;;5070251;28;20020;-67
2021/01/01 06:47:55;;;;;;;20.10;11.38;;;2.30;99.90;;;;;;5070849;28;20029;-67
2021/01/01 06:50:29;;;;;;;22.70;11.82;;;2.30;99.90;;;;;;5070484;28;20163;-67
2021/01/01 06:53:01;;;;;;;20.40;10.95;;;2.20;99.90;;;;;;5069963;28;20501;-67
2021/01/01 06:55:37;;;;;;;23.08;10.80;;;2.30;99.90;;;;;;5070626;28;20092;-67
2021/01/01 06:58:04;;;;;;;22.85;9.90;;;2.20;99.90;;;;;;5070894;28;20384;-69
2021/01/01 07:00:44;;;;;;;18.27;8.98;;;2.30;99.90;;;;;;5069667;28;20502;-66
2021/01/01 07:03:29;;;;;;;15.07;9.45;;;2.20;99.90;;;;;;5070557;28;20120;-68
2021/01/01 07:06:17;;;;;;;17.17;9.35;;;2.30;99.90;;;;;;5069835;28;20020;-66
2021/01/01 07:08:43;;;;;;;13.85;7.80;;;2.30;99.90;;;;;;5070391;28;20032;-66
2021/01/01 07:11:17;;;;;;;16.90;9.63;;;2.30;99.90;;;;;;5070276;28;20023;-68
2021/01/01 07:13:53;;;;;;;17.42;8.05;;;2.30;99.90;;;;;;5069503;28;20036;-67
2021/01/01 07:16:23;;;;;;;12.18;7.10;;;2.30;99.90;;;;;;5069750;28;20102;-66
2021/01/01 07:18:50;;;;;;;13.82;6.68;;;2.40;99.90;;;;;;5070571;28;20472;-66
2021/01/01 07:21:18;;;;;;;12.65;7.10;;;2.40;99.90;;;;;;5071794;28;20487;-66
2021/01/01 07:23:44;;;;;;;15.70;7.82;;;2.40;99.90;;;;;;5081411;28;20037;-66
2021/01/01 07:26:11;;;;;;;12.88;6.50;;;2.40;99.90;;;;;;5070151;28;20065;-67
2021/01/01 07:28:41;;;;;;;14.38;6.38;;;2.40;99.90;;;;;;5069541;28;20086;-66
2021/01/01 07:31:07;;;;;;;12.52;6.32;;;2.40;99.90;;;;;;5069972;28;20048;-66
2021/01/01 07:33:33;;;;;;;10.50;5.47;;;2.40;99.90;;;;;;5069133;28;20056;-66
2021/01/01 07:36:04;;;;;;;11.27;6.40;;;2.40;99.90;;;;;;5073532;28;20020;-69
2021/01/01 07:38:41;;;;;;;10.23;6.43;;;2.40;99.90;;;;;;5073391;28;20159;-66
2021/01/01 07:41:07;;;;;;;12.23;5.90;;;2.40;99.90;;;;;;5072928;28;20040;-68
2021/01/01 07:43:34;;;;;;;10.68;5.65;;;2.40;99.90;;;;;;5075800;28;20065;-66
2021/01/01 07:46:02;;;;;;;9.30;5.78;;;2.40;99.90;;;;;;5073340;28;20091;-66
2021/01/01 07:48:27;;;;;;;10.15;6.13;;;2.40;99.90;;;;;;5072190;28;20376;-66
2021/01/01 07:50:58;;;;;;;9.60;5.55;;;2.40;99.90;;;;;;5073315;28;20009;-66
2021/01/01 07:53:23;;;;;;;10.13;6.70;;;2.40;99.90;;;;;;5075582;28;20595;-66
2021/01/01 07:55:49;;;;;;;14.15;6.95;;;2.40;99.90;;;;;;5073812;28;20108;-66
2021/01/01 07:58:15;;;;;;;9.75;6.22;;;2.40;99.90;;;;;;5073273;28;20155;-66
2021/01/01 08:00:43;;;;;;;8.85;5.30;;;2.40;99.90;;;;;;5073156;28;20032;-66
2021/01/01 08:03:10;;;;;;;12.48;6.10;;;2.40;99.90;;;;;;5072608;28;20027;-67
2021/01/01 08:05:36;;;;;;;11.93;6.18;;;2.30;99.90;;;;;;5072744;28;20021;-66
2021/01/01 08:08:31;;;;;;;9.88;5.18;;;2.40;99.90;;;;;;5077626;28;20078;-66
2021/01/01 08:10:58;;;;;;;9.98;5.13;;;2.40;99.90;;;;;;5068655;28;20043;-66
2021/01/01 08:13:29;;;;;;;8.38;5.03;;;2.40;99.90;;;;;;5074075;28;20032;-66
2021/01/01 08:15:56;;;;;;;7.57;5.32;;;2.40;99.90;;;;;;5072385;28;20044;-68
2021/01/01 08:18:23;;;;;;;12.73;6.32;;;2.40;99.90;;;;;;5090634;28;20123;-68
2021/01/01 08:21:00;;;;;;;14.15;5.32;;;2.50;99.90;;;;;;5075142;28;20024;-66
2021/01/01 08:23:27;;;;;;;9.30;4.93;;;2.50;99.90;;;;;;5071786;28;20036;-66
2021/01/01 08:25:54;;;;;;;7.32;4.80;;;2.50;99.90;;;;;;5072910;28;20016;-66
2021/01/01 08:28:26;;;;;;;9.40;5.03;;;2.50;99.90;;;;;;5072388;28;20024;-66
2021/01/01 08:31:03;;;;;;;7.80;5.20;;;2.60;99.90;;;;;;5071836;28;20094;-67
2021/01/01 08:33:31;;;;;;;7.20;4.95;;;2.60;99.90;;;;;;5076816;28;20036;-68
2021/01/01 08:36:01;;;;;;;7.65;5.25;;;2.60;99.90;;;;;;5077786;28;20106;-66
2021/01/01 08:38:26;;;;;;;9.63;5.32;;;2.60;99.90;;;;;;5080196;28;20087;-66
2021/01/01 08:40:57;;;;;;;8.95;5.30;;;2.70;99.90;;;;;;5080750;28;20469;-66
2021/01/01 08:43:24;;;;;;;9.50;5.55;;;2.80;99.90;;;;;;5080757;28;20115;-66
2021/01/01 08:45:50;;;;;;;8.02;5.55;;;2.80;99.90;;;;;;5088710;28;20418;-66
2021/01/01 08:48:16;;;;;;;8.50;5.57;;;2.90;99.90;;;;;;5085172;28;20113;-67
2021/01/01 08:50:44;;;;;;;11.15;5.13;;;2.90;99.90;;;;;;5085633;28;20051;-66
2021/01/01 08:53:10;;;;;;;13.20;5.30;;;2.90;99.90;;;;;;5090810;28;20020;-67
2021/01/01 08:55:36;;;;;;;7.55;5.15;;;3.00;99.90;;;;;;5090468;28;20059;-66
2021/01/01 08:58:15;;;;;;;9.63;6.68;;;3.10;99.90;;;;;;5085219;28;20056;-66
2021/01/01 09:00:43;;;;;;;7.75;5.32;;;3.10;99.90;;;;;;5073634;28;20028;-67
2021/01/01 09:03:09;;;;;;;10.13;6.07;;;3.20;99.90;;;;;;5073355;28;20039;-67
2021/01/01 09:05:35;;;;;;;8.60;5.95;;;3.20;99.90;;;;;;5072135;28;20070;-67
2021/01/01 09:08:09;;;;;;;8.93;5.90;;;3.30;99.90;;;;;;5073223;28;20017;-65
2021/01/01 09:10:36;;;;;;;13.95;5.63;;;3.20;99.90;;;;;;5072865;28;20024;-67
2021/01/01 09:13:15;;;;;;;7.50;5.53;;;3.30;99.90;;;;;;5072397;28;20037;-66
2021/01/01 09:15:41;;;;;;;7.80;4.75;;;3.30;99.90;;;;;;5072870;28;20060;-67
2021/01/01 09:18:07;;;;;;;10.18;5.72;;;3.40;99.90;;;;;;5073064;28;20059;-67
2021/01/01 09:20:33;;;;;;;6.80;5.20;;;3.40;99.90;;;;;;5071876;28;20031;-67
2021/01/01 09:23:01;;;;;;;9.88;5.55;;;3.50;99.90;;;;;;5073160;28;20020;-67
2021/01/01 09:25:27;;;;;;;6.93;5.78;;;3.50;99.90;;;;;;5089620;28;20028;-67
2021/01/01 09:27:54;;;;;;;16.65;5.47;;;3.50;99.90;;;;;;5071599;28;20040;-65
2021/01/01 09:30:22;;;;;;;9.52;4.85;;;3.60;99.90;;;;;;5080479;28;20352;-68
2021/01/01 09:32:50;;;;;;;8.57;5.57;;;3.60;99.90;;;;;;5082924;28;20024;-68
2021/01/01 09:35:16;;;;;;;10.32;7.35;;;3.60;99.90;;;;;;5071503;28;20149;-68
2021/01/01 09:37:46;;;;;;;8.70;6.03;;;3.60;99.90;;;;;;5079646;28;20052;-68
2021/01/01 09:40:14;;;;;;;11.98;6.43;;;3.70;99.90;;;;;;5092115;28;20020;-68
2021/01/01 09:42:39;;;;;;;10.80;6.85;;;3.80;99.90;;;;;;5092551;28;20028;-67
2021/01/01 09:45:05;;;;;;;8.25;5.32;;;3.80;99.90;;;;;;5092633;28;20385;-68
2021/01/01 09:47:31;;;;;;;12.27;5.25;;;3.90;99.90;;;;;;5074122;28;20021;-68
2021/01/01 09:49:56;;;;;;;10.18;6.53;;;3.90;99.90;;;;;;5072199;28;20040;-68
2021/01/01 09:52:22;;;;;;;7.05;5.18;;;3.90;99.90;;;;;;5076811;28;20373;-68
2021/01/01 09:54:47;;;;;;;10.70;6.00;;;4.00;99.90;;;;;;5071780;28;20032;-69
2021/01/01 09:57:13;;;;;;;10.25;6.68;;;4.00;99.90;;;;;;5081936;28;20024;-69
2021/01/01 09:59:38;;;;;;;9.75;6.15;;;4.10;99.90;;;;;;5087803;28;20106;-69
2021/01/01 10:02:04;;;;;;;10.57;6.43;;;4.10;99.90;;;;;;5089524;28;20068;-68
2021/01/01 10:04:29;;;;;;;7.35;6.22;;;4.20;99.90;;;;;;5087369;28;20423;-68
2021/01/01 10:06:55;;;;;;;10.55;6.95;;;4.20;99.90;;;;;;5071730;28;20043;-68
2021/01/01 10:09:20;;;;;;;11.65;7.50;;;4.30;99.90;;;;;;5070840;28;20119;-67
2021/01/01 10:11:50;;;;;;;13.93;6.60;;;4.30;99.90;;;;;;5072062;28;20027;-69
2021/01/01 10:14:16;;;;;;;12.48;7.25;;;4.30;99.90;;;;;;5072240;28;20052;-68
2021/01/01 10:16:42;;;;;;;12.85;6.25;;;4.30;99.90;;;;;;5072806;28;20060;-68
2021/01/01 10:19:08;;;;;;;7.70;6.15;;;4.30;99.90;;;;;;5074488;28;20535;-68
2021/01/01 10:21:33;;;;;;;12.10;6.70;;;4.40;99.90;;;;;;5084419;28;20107;-67
2021/01/01 10:23:59;;;;;;;13.60;6.13;;;4.40;99.90;;;;;;5088944;28;20128;-68
2021/01/01 10:26:24;;;;;;;12.45;6.40;;;4.40;99.90;;;;;;5088751;28;20059;-68
2021/01/01 10:28:50;;;;;;;8.73;6.70;;;4.50;99.90;;;;;;5090351;28;20114;-68
2021/01/01 10:31:22;;;;;;;10.65;6.80;;;4.50;99.90;;;;;;5087036;28;20106;-68
2021/01/01 10:33:47;;;;;;;9.25;6.68;;;4.50;99.90;;;;;;5086989;28;20094;-68
2021/01/01 10:36:13;;;;;;;12.07;6.57;;;4.50;99.90;;;;;;5090568;28;20394;-67
2021/01/01 10:38:38;;;;;;;10.82;6.85;;;4.60;99.90;;;;;;5088050;28;20038;-68
2021/01/01 10:41:04;;;;;;;12.23;7.40;;;4.70;99.90;;;;;;5090052;28;20023;-67
2021/01/01 10:43:29;;;;;;;11.23;6.70;;;4.70;99.90;;;;;;5090027;28;20050;-67
2021/01/01 10:45:55;;;;;;;12.60;7.55;;;4.70;99.90;;;;;;5085228;28;20021;-68
2021/01/01 10:48:21;;;;;;;14.00;7.43;;;4.80;99.90;;;;;;5071319;28;20587;-67
2021/01/01 10:50:47;;;;;;;11.57;7.68;;;4.80;99.90;;;;;;5085157;28;20427;-67
2021/01/01 10:53:12;;;;;;;14.15;8.25;;;4.90;99.90;;;;;;5085085;28;20040;-67
2021/01/01 10:55:41;;;;;;;11.13;7.13;;;5.00;99.90;;;;;;5087697;28;20024;-67
2021/01/01 10:58:07;;;;;;;11.68;8.15;;;5.10;99.90;;;;;;5084078;28;20024;-67
2021/01/01 11:00:33;;;;;;;15.60;8.13;;;5.10;99.90;;;;;;5080935;28;20591;-67
2021/01/01 11:02:59;;;;;;;13.48;7.10;;;5.20;99.90;;;;;;5077824;28;20130;-67
2021/01/01 11:05:24;;;;;;;16.00;8.00;;;5.30;99.90;;;;;;5077940;28;20049;-67
2021/01/01 11:07:50;;;;;;;17.95;8.27;;;5.40;99.90;;;;;;5083099;28;20017;-67
2021/01/01 11:10:15;;;;;;;12.40;8.48;;;5.50;99.90;;;;;;5080576;28;20048;-67
2021/01/01 11:12:41;;;;;;;15.25;8.02;;;5.60;99.90;;;;;;5089116;28;20028;-67
2021/01/01 12:19:22;;;;;;;13.50;8.35;;;5.70;99.90;;;;;;5081370;28;20039;-67
2021/01/01 12:22:25;;;;;;;11.82;7.03;;;6.00;99.90;;;;;;5062143;28;20125;-68
2021/01/01 12:24:52;;;;;;;14.57;7.65;;;6.00;99.90;;;;;;5092652;28;20024;-68
2021/01/01 12:27:20;;;;;;;10.40;7.25;;;6.00;99.90;;;;;;5092759;28;20077;-68
2021/01/01 12:29:47;;;;;;;13.18;8.35;;;6.00;99.90;;;;;;5085617;28;20044;-68
2021/01/01 12:32:14;;;;;;;14.50;7.90;;;6.10;99.90;;;;;;5089115;28;20097;-69
2021/01/01 12:34:41;;;;;;;15.60;9.77;;;6.10;99.90;;;;;;5090922;28;20036;-69
2021/01/01 12:37:07;;;;;;;14.77;7.47;;;6.10;99.90;;;;;;5088914;28;20100;-68
2021/01/01 12:39:32;;;;;;;15.77;8.20;;;6.20;99.90;;;;;;5091554;28;20073;-69
2021/01/01 12:41:58;;;;;;;11.18;7.65;;;6.20;99.90;;;;;;5090779;28;20031;-68
2021/01/01 12:44:23;;;;;;;14.43;7.88;;;6.20;99.90;;;;;;5091101;28;20023;-69
2021/01/01 12:46:52;;;;;;;12.07;6.72;;;6.30;99.90;;;;;;5092677;28;20081;-68
2021/01/01 12:49:18;;;;;;;17.90;6.97;;;6.30;99.90;;;;;;5092296;28;20435;-69
2021/01/01 12:51:43;;;;;;;12.38;7.60;;;6.30;99.90;;;;;;5089698;28;20100;-68
2021/01/01 12:54:09;;;;;;;12.73;6.43;;;6.30;99.90;;;;;;5089948;28;20115;-68
2021/01/01 12:56:36;;;;;;;8.60;5.55;;;6.20;99.90;;;;;;5083847;28;20771;-68
2021/01/01 12:59:02;;;;;;;6.40;3.42;;;6.20;99.90;;;;;;5091624;28;20107;-68
2021/01/01 13:01:33;;;;;;;4.30;2.70;;;6.20;99.90;;;;;;5091454;28;20531;-69
2021/01/01 13:03:59;;;;;;;4.70;2.60;;;6.10;99.90;;;;;;5083888;28;20130;-68
2021/01/01 13:06:26;;;;;;;2.67;2.42;;;5.90;99.90;;;;;;5083694;28;20195;-68
2021/01/01 13:08:52;;;;;;;4.75;2.90;;;5.90;99.90;;;;;;5083119;28;20031;-68
2021/01/01 13:11:19;;;;;;;5.07;2.47;;;5.80;99.90;;;;;;5083099;28;20031;-68
2021/01/01 13:13:44;;;;;;;3.70;2.55;;;5.70;99.90;;;;;;5079991;28;20430;-68
2021/01/01 13:16:10;;;;;;;3.55;2.28;;;5.70;99.90;;;;;;5084092;28;20032;-68
2021/01/01 13:18:36;;;;;;;3.63;2.10;;;5.70;99.90;;;;;;5079826;28;20020;-68
2021/01/01 13:21:06;;;;;;;3.42;2.53;;;5.60;99.90;;;;;;5091968;28;20471;-68
2021/01/01 13:23:39;;;;;;;3.80;2.60;;;5.60;99.90;;;;;;5091623;28;20032;-68
2021/01/01 13:26:04;;;;;;;3.30;2.40;;;5.60;99.90;;;;;;5091601;28;20073;-68
2021/01/01 13:28:30;;;;;;;2.47;1.85;;;5.70;99.90;;;;;;5092406;28;20023;-68
2021/01/01 13:30:55;;;;;;;2.38;1.40;;;5.60;99.90;;;;;;5083381;28;20116;-68
2021/01/01 13:33:21;;;;;;;1.95;1.20;;;5.70;99.90;;;;;;5090911;28;20024;-68
2021/01/01 13:35:51;;;;;;;2.47;1.50;;;5.60;99.90;;;;;;5081005;28;20025;-68
2021/01/01 13:38:18;;;;;;;1.98;1.70;;;5.60;99.90;;;;;;5075153;28;20036;-68
2021/01/01 13:40:43;;;;;;;1.90;1.67;;;5.50;99.90;;;;;;5089637;28;20028;-68
2021/01/01 13:43:09;;;;;;;2.83;1.65;;;5.50;99.90;;;;;;5082207;28;20176;-68